sensor_id;sensor_type;location;lat;lon;timestamp;temperature;humidity
18882;DHT22;9573;50.948;11.600;2022-07-29T00:01:49;19.00;77.10
18882;DHT22;9573;50.948;11.600;2022-07-29T00:04:17;19.00;77.30
18882;DHT22;9573;50.948;11.600;2022-07-29T00:06:45;19.00;77.20
18882;DHT22;9573;50.948;11.600;2022-07-29T00:09:12;19.10;77.20
18882;DHT22;9573;50.948;11.600;2022-07-29T00:11:41;19.10;77.10
18882;DHT22;9573;50.948;11.600;2022-07-29T00:14:09;19.10;77.00
18882;DHT22;9573;50.948;11.600;2022-07-29T00:16:36;19.10;77.00
18882;DHT22;9573;50.948;11.600;2022-07-29T00:19:03;19.10;77.00
18882;DHT22;9573;50.948;11.600;2022-07-29T00:21:31;19.10;76.90
18882;DHT22;9573;50.948;11.600;2022-07-29T00:23:58;19.10;77.00
18882;DHT22;9573;50.948;11.600;2022-07-29T00:26:25;19.10;77.30
18882;DHT22;9573;50.948;11.600;2022-07-29T00:28:58;19.00;78.00
18882;DHT22;9573;50.948;11.600;2022-07-29T00:31:25;19.00;78.90
18882;DHT22;9573;50.948;11.600;2022-07-29T00:33:53;18.90;79.80
18882;DHT22;9573;50.948;11.600;2022-07-29T00:36:20;18.80;80.20
18882;DHT22;9573;50.948;11.600;2022-07-29T00:38:46;18.70;80.80
18882;DHT22;9573;50.948;11.600;2022-07-29T00:41:13;18.60;81.30
18882;DHT22;9573;50.948;11.600;2022-07-29T00:43:41;18.60;81.70
18882;DHT22;9573;50.948;11.600;2022-07-29T00:46:09;18.50;82.00
18882;DHT22;9573;50.948;11.600;2022-07-29T00:48:37;18.50;82.20
18882;DHT22;9573;50.948;11.600;2022-07-29T00:51:05;18.50;82.50
18882;DHT22;9573;50.948;11.600;2022-07-29T00:53:34;18.50;82.50
18882;DHT22;9573;50.948;11.600;2022-07-29T00:56:02;18.50;83.00
18882;DHT22;9573;50.948;11.600;2022-07-29T00:58:30;18.40;83.30
18882;DHT22;9573;50.948;11.600;2022-07-29T01:00:58;18.40;83.90
18882;DHT22;9573;50.948;11.600;2022-07-29T01:03:26;18.30;83.80
18882;DHT22;9573;50.948;11.600;2022-07-29T01:05:54;18.30;84.30
18882;DHT22;9573;50.948;11.600;2022-07-29T01:08:22;18.20;84.80
18882;DHT22;9573;50.948;11.600;2022-07-29T01:10:51;18.20;85.30
18882;DHT22;9573;50.948;11.600;2022-07-29T01:13:19;18.20;85.00
18882;DHT22;9573;50.948;11.600;2022-07-29T01:15:54;18.30;85.10
18882;DHT22;9573;50.948;11.600;2022-07-29T01:18:30;18.30;85.30
18882;DHT22;9573;50.948;11.600;2022-07-29T01:21:14;18.20;85.80
18882;DHT22;9573;50.948;11.600;2022-07-29T01:26:49;18.20;86.20
18882;DHT22;9573;50.948;11.600;2022-07-29T01:29:25;18.20;87.20
18882;DHT22;9573;50.948;11.600;2022-07-29T01:31:57;18.20;86.80
18882;DHT22;9573;50.948;11.600;2022-07-29T01:34:31;18.10;86.90
18882;DHT22;9573;50.948;11.600;2022-07-29T01:37:08;18.10;87.10
18882;DHT22;9573;50.948;11.600;2022-07-29T01:39:38;18.10;88.00
18882;DHT22;9573;50.948;11.600;2022-07-29T01:42:12;18.00;88.50
18882;DHT22;9573;50.948;11.600;2022-07-29T01:44:50;17.90;89.10
18882;DHT22;9573;50.948;11.600;2022-07-29T01:47:25;17.90;89.00
18882;DHT22;9573;50.948;11.600;2022-07-29T01:49:56;17.90;89.90
18882;DHT22;9573;50.948;11.600;2022-07-29T01:52:31;17.70;90.20
18882;DHT22;9573;50.948;11.600;2022-07-29T01:55:06;17.70;90.50
18882;DHT22;9573;50.948;11.600;2022-07-29T01:57:38;17.70;90.50
18882;DHT22;9573;50.948;11.600;2022-07-29T02:00:10;17.70;90.50
18882;DHT22;9573;50.948;11.600;2022-07-29T02:02:40;17.70;90.70
18882;DHT22;9573;50.948;11.600;2022-07-29T02:05:12;17.60;90.80
18882;DHT22;9573;50.948;11.600;2022-07-29T02:07:43;17.70;90.80
18882;DHT22;9573;50.948;11.600;2022-07-29T02:10:12;17.70;90.90
18882;DHT22;9573;50.948;11.600;2022-07-29T02:12:40;17.70;91.00
18882;DHT22;9573;50.948;11.600;2022-07-29T02:15:11;17.70;91.10
18882;DHT22;9573;50.948;11.600;2022-07-29T02:17:41;17.70;91.20
18882;DHT22;9573;50.948;11.600;2022-07-29T02:20:11;17.70;91.30
18882;DHT22;9573;50.948;11.600;2022-07-29T02:22:39;17.60;91.40
18882;DHT22;9573;50.948;11.600;2022-07-29T02:25:08;17.60;91.50
18882;DHT22;9573;50.948;11.600;2022-07-29T02:27:38;17.60;91.70
18882;DHT22;9573;50.948;11.600;2022-07-29T02:30:07;17.60;91.90
18882;DHT22;9573;50.948;11.600;2022-07-29T02:32:39;17.50;92.20
18882;DHT22;9573;50.948;11.600;2022-07-29T02:35:09;17.50;92.30
18882;DHT22;9573;50.948;11.600;2022-07-29T02:37:37;17.50;92.50
18882;DHT22;9573;50.948;11.600;2022-07-29T02:40:08;17.50;92.50
18882;DHT22;9573;50.948;11.600;2022-07-29T02:42:39;17.50;92.70
18882;DHT22;9573;50.948;11.600;2022-07-29T02:45:09;17.40;92.90
18882;DHT22;9573;50.948;11.600;2022-07-29T02:47:41;17.30;93.30
18882;DHT22;9573;50.948;11.600;2022-07-29T02:50:14;17.20;93.60
18882;DHT22;9573;50.948;11.600;2022-07-29T02:52:45;17.20;93.50
18882;DHT22;9573;50.948;11.600;2022-07-29T02:55:18;17.20;93.80
18882;DHT22;9573;50.948;11.600;2022-07-29T02:57:53;17.10;94.30
18882;DHT22;9573;50.948;11.600;2022-07-29T03:00:26;16.90;94.90
18882;DHT22;9573;50.948;11.600;2022-07-29T03:02:58;16.80;95.40
18882;DHT22;9573;50.948;11.600;2022-07-29T03:05:26;16.70;95.80
18882;DHT22;9573;50.948;11.600;2022-07-29T03:07:58;16.70;95.90
18882;DHT22;9573;50.948;11.600;2022-07-29T03:10:27;16.70;95.90
18882;DHT22;9573;50.948;11.600;2022-07-29T03:12:55;16.70;96.00
18882;DHT22;9573;50.948;11.600;2022-07-29T03:15:24;16.70;96.00
18882;DHT22;9573;50.948;11.600;2022-07-29T03:17:51;16.80;96.10
18882;DHT22;9573;50.948;11.600;2022-07-29T03:20:20;16.10;96.00
18882;DHT22;9573;50.948;11.600;2022-07-29T03:22:48;16.80;96.30
18882;DHT22;9573;50.948;11.600;2022-07-29T03:25:17;16.60;96.30
18882;DHT22;9573;50.948;11.600;2022-07-29T03:27:45;16.80;96.40
18882;DHT22;9573;50.948;11.600;2022-07-29T03:30:14;16.80;96.70
18882;DHT22;9573;50.948;11.600;2022-07-29T03:32:41;16.80;96.70
18882;DHT22;9573;50.948;11.600;2022-07-29T03:35:08;16.80;96.90
18882;DHT22;9573;50.948;11.600;2022-07-29T03:37:37;16.90;97.00
18882;DHT22;9573;50.948;11.600;2022-07-29T03:40:07;16.90;97.10
18882;DHT22;9573;50.948;11.600;2022-07-29T03:42:37;16.90;97.10
18882;DHT22;9573;50.948;11.600;2022-07-29T03:45:08;16.90;97.30
18882;DHT22;9573;50.948;11.600;2022-07-29T03:47:40;16.90;97.50
18882;DHT22;9573;50.948;11.600;2022-07-29T03:50:11;16.90;97.60
18882;DHT22;9573;50.948;11.600;2022-07-29T03:52:43;16.90;97.80
18882;DHT22;9573;50.948;11.600;2022-07-29T03:55:10;16.80;98.00
18882;DHT22;9573;50.948;11.600;2022-07-29T03:57:38;16.80;98.20
18882;DHT22;9573;50.948;11.600;2022-07-29T04:00:07;16.80;98.40
18882;DHT22;9573;50.948;11.600;2022-07-29T04:02:36;16.80;98.50
18882;DHT22;9573;50.948;11.600;2022-07-29T04:05:03;16.90;98.60
18882;DHT22;9573;50.948;11.600;2022-07-29T04:07:31;16.80;99.00
18882;DHT22;9573;50.948;11.600;2022-07-29T04:09:59;16.80;99.00
18882;DHT22;9573;50.948;11.600;2022-07-29T04:12:26;16.90;99.00
18882;DHT22;9573;50.948;11.600;2022-07-29T04:14:53;16.90;99.00
18882;DHT22;9573;50.948;11.600;2022-07-29T04:17:21;16.90;99.00
18882;DHT22;9573;50.948;11.600;2022-07-29T04:19:48;16.90;98.90
18882;DHT22;9573;50.948;11.600;2022-07-29T04:22:15;17.00;99.00
18882;DHT22;9573;50.948;11.600;2022-07-29T04:24:42;17.10;99.00
18882;DHT22;9573;50.948;11.600;2022-07-29T04:27:10;17.20;98.80
18882;DHT22;9573;50.948;11.600;2022-07-29T04:29:37;17.20;99.00
18882;DHT22;9573;50.948;11.600;2022-07-29T04:32:05;17.20;99.10
18882;DHT22;9573;50.948;11.600;2022-07-29T04:34:32;17.20;99.20
18882;DHT22;9573;50.948;11.600;2022-07-29T04:36:59;17.20;99.50
18882;DHT22;9573;50.948;11.600;2022-07-29T04:39:27;17.20;99.40
18882;DHT22;9573;50.948;11.600;2022-07-29T04:41:54;17.10;99.30
18882;DHT22;9573;50.948;11.600;2022-07-29T04:44:22;17.10;99.60
18882;DHT22;9573;50.948;11.600;2022-07-29T04:46:49;17.10;99.80
18882;DHT22;9573;50.948;11.600;2022-07-29T04:49:16;17.10;99.90
18882;DHT22;9573;50.948;11.600;2022-07-29T04:51:44;17.40;99.90
18882;DHT22;9573;50.948;11.600;2022-07-29T04:54:11;17.20;99.90
18882;DHT22;9573;50.948;11.600;2022-07-29T04:56:38;17.30;99.90
18882;DHT22;9573;50.948;11.600;2022-07-29T04:59:05;17.40;99.90
18882;DHT22;9573;50.948;11.600;2022-07-29T05:01:33;17.50;99.90
18882;DHT22;9573;50.948;11.600;2022-07-29T05:04:01;17.50;99.90
18882;DHT22;9573;50.948;11.600;2022-07-29T05:06:28;17.50;99.90
18882;DHT22;9573;50.948;11.600;2022-07-29T05:08:55;17.50;99.90
18882;DHT22;9573;50.948;11.600;2022-07-29T05:11:22;17.40;99.90
18882;DHT22;9573;50.948;11.600;2022-07-29T05:13:49;17.50;99.90
18882;DHT22;9573;50.948;11.600;2022-07-29T05:16:16;17.60;99.90
18882;DHT22;9573;50.948;11.600;2022-07-29T05:18:45;17.70;99.90
18882;DHT22;9573;50.948;11.600;2022-07-29T05:21:12;17.70;99.90
18882;DHT22;9573;50.948;11.600;2022-07-29T05:23:39;17.70;99.90
18882;DHT22;9573;50.948;11.600;2022-07-29T05:26:06;17.80;99.90
18882;DHT22;9573;50.948;11.600;2022-07-29T05:28:33;17.90;99.90
18882;DHT22;9573;50.948;11.600;2022-07-29T05:31:00;18.10;99.90
18882;DHT22;9573;50.948;11.600;2022-07-29T05:33:27;18.20;99.90
18882;DHT22;9573;50.948;11.600;2022-07-29T05:35:56;18.30;99.60
18882;DHT22;9573;50.948;11.600;2022-07-29T05:38:24;18.60;99.30
18882;DHT22;9573;50.948;11.600;2022-07-29T05:40:51;18.70;99.00
18882;DHT22;9573;50.948;11.600;2022-07-29T05:43:18;18.80;98.60
18882;DHT22;9573;50.948;11.600;2022-07-29T05:45:46;18.80;98.20
18882;DHT22;9573;50.948;11.600;2022-07-29T05:48:13;18.90;98.20
18882;DHT22;9573;50.948;11.600;2022-07-29T05:50:40;18.90;98.00
18882;DHT22;9573;50.948;11.600;2022-07-29T05:53:09;19.20;97.80
18882;DHT22;9573;50.948;11.600;2022-07-29T05:55:36;19.80;96.70
18882;DHT22;9573;50.948;11.600;2022-07-29T05:58:03;19.90;96.40
18882;DHT22;9573;50.948;11.600;2022-07-29T06:00:30;20.00;96.20
18882;DHT22;9573;50.948;11.600;2022-07-29T06:02:57;20.10;95.90
18882;DHT22;9573;50.948;11.600;2022-07-29T06:05:24;20.00;95.70
18882;DHT22;9573;50.948;11.600;2022-07-29T06:07:52;20.20;95.70
18882;DHT22;9573;50.948;11.600;2022-07-29T06:10:20;21.00;94.30
18882;DHT22;9573;50.948;11.600;2022-07-29T06:12:47;21.70;93.40
18882;DHT22;9573;50.948;11.600;2022-07-29T06:15:15;23.60;90.70
18882;DHT22;9573;50.948;11.600;2022-07-29T06:17:43;25.90;81.70
18882;DHT22;9573;50.948;11.600;2022-07-29T06:20:10;27.30;75.40
18882;DHT22;9573;50.948;11.600;2022-07-29T06:22:38;27.80;71.50
18882;DHT22;9573;50.948;11.600;2022-07-29T06:25:06;29.50;66.90
18882;DHT22;9573;50.948;11.600;2022-07-29T06:27:34;31.00;61.30
18882;DHT22;9573;50.948;11.600;2022-07-29T06:30:02;32.20;56.30
18882;DHT22;9573;50.948;11.600;2022-07-29T06:32:32;32.90;54.90
18882;DHT22;9573;50.948;11.600;2022-07-29T06:34:59;33.60;52.70
18882;DHT22;9573;50.948;11.600;2022-07-29T06:37:26;34.20;50.60
18882;DHT22;9573;50.948;11.600;2022-07-29T06:39:53;34.80;49.30
18882;DHT22;9573;50.948;11.600;2022-07-29T06:42:36;35.00;48.00
18882;DHT22;9573;50.948;11.600;2022-07-29T06:45:03;35.20;47.00
18882;DHT22;9573;50.948;11.600;2022-07-29T06:47:31;35.70;46.00
18882;DHT22;9573;50.948;11.600;2022-07-29T06:49:58;36.10;45.50
18882;DHT22;9573;50.948;11.600;2022-07-29T06:52:25;36.90;44.30
18882;DHT22;9573;50.948;11.600;2022-07-29T06:54:52;37.60;42.70
18882;DHT22;9573;50.948;11.600;2022-07-29T06:57:20;38.70;41.30
18882;DHT22;9573;50.948;11.600;2022-07-29T06:59:49;39.50;39.90
18882;DHT22;9573;50.948;11.600;2022-07-29T07:02:16;38.80;39.70
18882;DHT22;9573;50.948;11.600;2022-07-29T07:04:43;36.50;40.60
18882;DHT22;9573;50.948;11.600;2022-07-29T07:07:10;34.30;43.80
18882;DHT22;9573;50.948;11.600;2022-07-29T07:09:37;33.10;44.70
18882;DHT22;9573;50.948;11.600;2022-07-29T07:12:05;32.00;46.40
18882;DHT22;9573;50.948;11.600;2022-07-29T07:14:32;33.50;46.10
18882;DHT22;9573;50.948;11.600;2022-07-29T07:17:00;35.10;43.80
18882;DHT22;9573;50.948;11.600;2022-07-29T07:19:29;35.60;43.10
18882;DHT22;9573;50.948;11.600;2022-07-29T07:21:56;37.60;41.60
18882;DHT22;9573;50.948;11.600;2022-07-29T07:24:24;38.70;39.90
18882;DHT22;9573;50.948;11.600;2022-07-29T07:26:51;40.10;38.80
18882;DHT22;9573;50.948;11.600;2022-07-29T07:29:18;40.90;37.20
18882;DHT22;9573;50.948;11.600;2022-07-29T07:31:45;40.30;36.90
18882;DHT22;9573;50.948;11.600;2022-07-29T07:34:14;41.10;36.50
18882;DHT22;9573;50.948;11.600;2022-07-29T07:36:41;41.90;35.60
18882;DHT22;9573;50.948;11.600;2022-07-29T07:39:08;42.40;34.80
18882;DHT22;9573;50.948;11.600;2022-07-29T07:41:35;42.50;34.70
18882;DHT22;9573;50.948;11.600;2022-07-29T07:44:03;43.20;34.40
18882;DHT22;9573;50.948;11.600;2022-07-29T07:46:30;42.80;34.00
18882;DHT22;9573;50.948;11.600;2022-07-29T07:48:57;43.40;34.30
18882;DHT22;9573;50.948;11.600;2022-07-29T07:51:26;42.90;33.40
18882;DHT22;9573;50.948;11.600;2022-07-29T07:53:53;41.30;34.80
18882;DHT22;9573;50.948;11.600;2022-07-29T07:56:20;39.30;36.80
18882;DHT22;9573;50.948;11.600;2022-07-29T07:58:47;40.60;36.70
18882;DHT22;9573;50.948;11.600;2022-07-29T08:01:15;41.80;35.00
18882;DHT22;9573;50.948;11.600;2022-07-29T08:03:44;40.90;35.20
18882;DHT22;9573;50.948;11.600;2022-07-29T08:06:11;38.50;36.80
18882;DHT22;9573;50.948;11.600;2022-07-29T08:08:40;36.50;39.60
18882;DHT22;9573;50.948;11.600;2022-07-29T08:11:07;37.20;40.10
18882;DHT22;9573;50.948;11.600;2022-07-29T08:13:34;38.50;38.10
18882;DHT22;9573;50.948;11.600;2022-07-29T08:16:01;39.50;37.80
18882;DHT22;9573;50.948;11.600;2022-07-29T08:18:37;40.10;36.80
18882;DHT22;9573;50.948;11.600;2022-07-29T08:21:07;40.30;36.70
18882;DHT22;9573;50.948;11.600;2022-07-29T08:23:34;40.40;36.30
18882;DHT22;9573;50.948;11.600;2022-07-29T08:26:06;40.50;36.00
18882;DHT22;9573;50.948;11.600;2022-07-29T08:28:36;40.10;36.30
18882;DHT22;9573;50.948;11.600;2022-07-29T08:31:04;40.90;36.40
18882;DHT22;9573;50.948;11.600;2022-07-29T08:33:31;42.50;35.60
18882;DHT22;9573;50.948;11.600;2022-07-29T08:35:59;43.50;34.20
18882;DHT22;9573;50.948;11.600;2022-07-29T08:38:26;41.80;33.90
18882;DHT22;9573;50.948;11.600;2022-07-29T08:40:53;41.30;35.70
18882;DHT22;9573;50.948;11.600;2022-07-29T08:43:22;41.60;36.30
18882;DHT22;9573;50.948;11.600;2022-07-29T08:45:50;42.50;35.00
18882;DHT22;9573;50.948;11.600;2022-07-29T08:48:19;43.60;33.50
18882;DHT22;9573;50.948;11.600;2022-07-29T08:50:48;43.00;32.70
18882;DHT22;9573;50.948;11.600;2022-07-29T08:53:20;42.60;33.90
18882;DHT22;9573;50.948;11.600;2022-07-29T08:55:49;41.50;34.10
18882;DHT22;9573;50.948;11.600;2022-07-29T08:58:17;41.50;34.80
18882;DHT22;9573;50.948;11.600;2022-07-29T09:00:53;41.40;34.50
18882;DHT22;9573;50.948;11.600;2022-07-29T09:03:24;40.30;35.20
18882;DHT22;9573;50.948;11.600;2022-07-29T09:05:52;38.90;37.00
18882;DHT22;9573;50.948;11.600;2022-07-29T09:08:19;39.80;36.70
18882;DHT22;9573;50.948;11.600;2022-07-29T09:10:47;40.80;35.90
18882;DHT22;9573;50.948;11.600;2022-07-29T09:13:14;41.60;35.40
18882;DHT22;9573;50.948;11.600;2022-07-29T09:15:41;42.00;34.90
18882;DHT22;9573;50.948;11.600;2022-07-29T09:18:10;42.10;34.70
18882;DHT22;9573;50.948;11.600;2022-07-29T09:20:37;42.20;34.50
18882;DHT22;9573;50.948;11.600;2022-07-29T09:23:23;42.40;34.00
18882;DHT22;9573;50.948;11.600;2022-07-29T09:25:50;42.00;34.50
18882;DHT22;9573;50.948;11.600;2022-07-29T09:28:17;42.30;34.30
18882;DHT22;9573;50.948;11.600;2022-07-29T09:30:52;41.70;34.00
18882;DHT22;9573;50.948;11.600;2022-07-29T09:33:23;41.20;34.40
18882;DHT22;9573;50.948;11.600;2022-07-29T09:35:59;41.40;34.70
18882;DHT22;9573;50.948;11.600;2022-07-29T09:38:30;41.70;34.50
18882;DHT22;9573;50.948;11.600;2022-07-29T09:40:58;42.10;34.40
18882;DHT22;9573;50.948;11.600;2022-07-29T09:43:26;42.00;34.00
18882;DHT22;9573;50.948;11.600;2022-07-29T09:45:55;42.60;33.70
18882;DHT22;9573;50.948;11.600;2022-07-29T09:48:24;42.50;33.10
18882;DHT22;9573;50.948;11.600;2022-07-29T09:50:52;42.80;33.90
18882;DHT22;9573;50.948;11.600;2022-07-29T09:53:30;42.10;33.40
18882;DHT22;9573;50.948;11.600;2022-07-29T09:55:59;42.20;34.10
18882;DHT22;9573;50.948;11.600;2022-07-29T09:58:26;41.50;33.80
18882;DHT22;9573;50.948;11.600;2022-07-29T10:00:54;41.80;33.90
18882;DHT22;9573;50.948;11.600;2022-07-29T10:03:23;42.30;33.20
18882;DHT22;9573;50.948;11.600;2022-07-29T10:06:05;42.30;32.40
18882;DHT22;9573;50.948;11.600;2022-07-29T10:08:33;42.00;33.50
18882;DHT22;9573;50.948;11.600;2022-07-29T10:11:09;42.80;33.10
18882;DHT22;9573;50.948;11.600;2022-07-29T10:13:38;41.80;32.20
18882;DHT22;9573;50.948;11.600;2022-07-29T10:16:06;40.50;33.30
18882;DHT22;9573;50.948;11.600;2022-07-29T10:18:35;38.60;34.30
18882;DHT22;9573;50.948;11.600;2022-07-29T10:21:04;37.00;36.30
18882;DHT22;9573;50.948;11.600;2022-07-29T10:23:32;36.70;37.60
18882;DHT22;9573;50.948;11.600;2022-07-29T10:26:00;36.30;38.00
18882;DHT22;9573;50.948;11.600;2022-07-29T10:28:30;35.80;39.10
18882;DHT22;9573;50.948;11.600;2022-07-29T10:31:01;35.40;39.20
18882;DHT22;9573;50.948;11.600;2022-07-29T10:33:44;35.40;39.90
18882;DHT22;9573;50.948;11.600;2022-07-29T10:36:38;35.10;39.40
18882;DHT22;9573;50.948;11.600;2022-07-29T10:39:17;35.60;39.90
18882;DHT22;9573;50.948;11.600;2022-07-29T10:42:02;35.40;40.00
18882;DHT22;9573;50.948;11.600;2022-07-29T10:44:35;35.00;40.10
18882;DHT22;9573;50.948;11.600;2022-07-29T10:47:06;35.00;40.70
18882;DHT22;9573;50.948;11.600;2022-07-29T10:49:35;35.20;40.10
18882;DHT22;9573;50.948;11.600;2022-07-29T10:52:06;35.60;40.00
18882;DHT22;9573;50.948;11.600;2022-07-29T10:54:48;35.60;40.00
18882;DHT22;9573;50.948;11.600;2022-07-29T10:57:23;35.20;40.20
18882;DHT22;9573;50.948;11.600;2022-07-29T11:00:29;35.80;40.10
18882;DHT22;9573;50.948;11.600;2022-07-29T11:02:57;36.20;39.50
18882;DHT22;9573;50.948;11.600;2022-07-29T11:05:27;36.10;39.10
18882;DHT22;9573;50.948;11.600;2022-07-29T11:14:06;36.40;38.70
18882;DHT22;9573;50.948;11.600;2022-07-29T11:16:59;36.50;38.50
18882;DHT22;9573;50.948;11.600;2022-07-29T11:19:33;37.70;38.10
18882;DHT22;9573;50.948;11.600;2022-07-29T11:22:03;38.20;37.10
18882;DHT22;9573;50.948;11.600;2022-07-29T11:24:34;38.30;36.50
18882;DHT22;9573;50.948;11.600;2022-07-29T11:27:15;37.00;37.10
18882;DHT22;9573;50.948;11.600;2022-07-29T11:29:51;36.60;38.10
18882;DHT22;9573;50.948;11.600;2022-07-29T11:32:21;36.20;38.40
18882;DHT22;9573;50.948;11.600;2022-07-29T11:35:10;36.30;38.30
18882;DHT22;9573;50.948;11.600;2022-07-29T11:37:42;36.30;38.90
18882;DHT22;9573;50.948;11.600;2022-07-29T11:40:16;36.20;38.80
18882;DHT22;9573;50.948;11.600;2022-07-29T11:42:50;36.30;38.90
18882;DHT22;9573;50.948;11.600;2022-07-29T11:45:20;36.10;38.90
18882;DHT22;9573;50.948;11.600;2022-07-29T11:47:54;36.10;39.00
18882;DHT22;9573;50.948;11.600;2022-07-29T11:50:32;35.90;38.90
18882;DHT22;9573;50.948;11.600;2022-07-29T11:53:05;35.20;40.20
18882;DHT22;9573;50.948;11.600;2022-07-29T11:55:38;35.00;40.90
18882;DHT22;9573;50.948;11.600;2022-07-29T11:58:06;35.40;40.50
18882;DHT22;9573;50.948;11.600;2022-07-29T12:00:35;35.30;40.40
18882;DHT22;9573;50.948;11.600;2022-07-29T12:03:05;35.00;40.50
18882;DHT22;9573;50.948;11.600;2022-07-29T12:05:39;34.50;41.10
18882;DHT22;9573;50.948;11.600;2022-07-29T12:08:11;33.80;41.50
18882;DHT22;9573;50.948;11.600;2022-07-29T12:10:40;33.60;42.10
18882;DHT22;9573;50.948;11.600;2022-07-29T12:13:09;33.30;42.60
18882;DHT22;9573;50.948;11.600;2022-07-29T12:15:36;33.30;43.10
18882;DHT22;9573;50.948;11.600;2022-07-29T12:18:14;32.90;43.60
18882;DHT22;9573;50.948;11.600;2022-07-29T12:20:42;32.60;44.50
18882;DHT22;9573;50.948;11.600;2022-07-29T12:23:12;32.40;44.80
18882;DHT22;9573;50.948;11.600;2022-07-29T12:25:40;32.00;45.30
18882;DHT22;9573;50.948;11.600;2022-07-29T12:28:10;31.90;45.70
18882;DHT22;9573;50.948;11.600;2022-07-29T12:30:41;31.70;45.80
18882;DHT22;9573;50.948;11.600;2022-07-29T12:33:19;31.60;46.50
18882;DHT22;9573;50.948;11.600;2022-07-29T12:35:49;31.60;46.70
18882;DHT22;9573;50.948;11.600;2022-07-29T12:38:19;31.50;46.50
18882;DHT22;9573;50.948;11.600;2022-07-29T12:40:48;31.40;46.70
18882;DHT22;9573;50.948;11.600;2022-07-29T12:43:17;31.30;46.80
18882;DHT22;9573;50.948;11.600;2022-07-29T12:45:46;31.30;46.90
18882;DHT22;9573;50.948;11.600;2022-07-29T12:48:15;31.40;47.20
18882;DHT22;9573;50.948;11.600;2022-07-29T12:50:53;31.30;47.20
18882;DHT22;9573;50.948;11.600;2022-07-29T12:53:23;31.10;47.20
18882;DHT22;9573;50.948;11.600;2022-07-29T12:55:51;31.30;47.50
18882;DHT22;9573;50.948;11.600;2022-07-29T12:58:33;31.10;47.80
18882;DHT22;9573;50.948;11.600;2022-07-29T13:01:10;31.20;47.90
18882;DHT22;9573;50.948;11.600;2022-07-29T13:03:43;31.10;48.00
18882;DHT22;9573;50.948;11.600;2022-07-29T13:06:37;31.10;48.20
18882;DHT22;9573;50.948;11.600;2022-07-29T13:09:09;31.00;48.60
18882;DHT22;9573;50.948;11.600;2022-07-29T13:11:39;30.80;48.60
18882;DHT22;9573;50.948;11.600;2022-07-29T13:14:09;30.80;48.70
18882;DHT22;9573;50.948;11.600;2022-07-29T13:19:38;30.30;49.00
18882;DHT22;9573;50.948;11.600;2022-07-29T13:22:08;30.20;49.60
18882;DHT22;9573;50.948;11.600;2022-07-29T13:24:47;30.00;49.60
18882;DHT22;9573;50.948;11.600;2022-07-29T13:27:15;30.00;50.20
18882;DHT22;9573;50.948;11.600;2022-07-29T13:29:43;30.00;50.20
18882;DHT22;9573;50.948;11.600;2022-07-29T13:32:11;29.90;50.20
18882;DHT22;9573;50.948;11.600;2022-07-29T13:34:38;29.90;50.40
18882;DHT22;9573;50.948;11.600;2022-07-29T13:37:06;29.90;50.60
18882;DHT22;9573;50.948;11.600;2022-07-29T13:39:33;29.90;50.50
18882;DHT22;9573;50.948;11.600;2022-07-29T13:42:02;29.90;50.50
18882;DHT22;9573;50.948;11.600;2022-07-29T13:44:29;29.80;50.60
18882;DHT22;9573;50.948;11.600;2022-07-29T13:46:56;29.80;50.90
18882;DHT22;9573;50.948;11.600;2022-07-29T13:49:24;29.90;50.90
18882;DHT22;9573;50.948;11.600;2022-07-29T13:51:51;29.80;50.90
18882;DHT22;9573;50.948;11.600;2022-07-29T13:54:18;29.90;50.90
18882;DHT22;9573;50.948;11.600;2022-07-29T13:56:46;30.10;50.90
18882;DHT22;9573;50.948;11.600;2022-07-29T13:59:14;30.30;50.60
18882;DHT22;9573;50.948;11.600;2022-07-29T14:01:42;30.40;50.40
18882;DHT22;9573;50.948;11.600;2022-07-29T14:04:10;30.50;50.60
18882;DHT22;9573;50.948;11.600;2022-07-29T14:06:37;30.20;53.50
18882;DHT22;9573;50.948;11.600;2022-07-29T14:09:05;30.00;54.90
18882;DHT22;9573;50.948;11.600;2022-07-29T14:11:34;29.90;55.60
18882;DHT22;9573;50.948;11.600;2022-07-29T14:14:01;30.00;55.70
18882;DHT22;9573;50.948;11.600;2022-07-29T14:16:30;30.20;55.90
18882;DHT22;9573;50.948;11.600;2022-07-29T14:18:57;30.10;56.50
18882;DHT22;9573;50.948;11.600;2022-07-29T14:21:24;30.00;56.70
18882;DHT22;9573;50.948;11.600;2022-07-29T14:23:51;29.90;57.00
18882;DHT22;9573;50.948;11.600;2022-07-29T14:26:20;30.00;56.80
18882;DHT22;9573;50.948;11.600;2022-07-29T14:28:47;30.00;56.80
18882;DHT22;9573;50.948;11.600;2022-07-29T14:31:15;30.10;56.90
18882;DHT22;9573;50.948;11.600;2022-07-29T14:33:43;30.30;56.80
18882;DHT22;9573;50.948;11.600;2022-07-29T14:36:10;30.70;56.60
18882;DHT22;9573;50.948;11.600;2022-07-29T14:38:38;31.00;56.00
18882;DHT22;9573;50.948;11.600;2022-07-29T14:41:06;31.20;55.50
18882;DHT22;9573;50.948;11.600;2022-07-29T14:43:34;31.30;55.00
18882;DHT22;9573;50.948;11.600;2022-07-29T14:46:01;31.40;54.90
18882;DHT22;9573;50.948;11.600;2022-07-29T14:48:28;31.20;54.90
18882;DHT22;9573;50.948;11.600;2022-07-29T14:50:57;31.10;55.20
18882;DHT22;9573;50.948;11.600;2022-07-29T14:53:24;30.90;55.50
18882;DHT22;9573;50.948;11.600;2022-07-29T14:55:51;30.90;55.60
18882;DHT22;9573;50.948;11.600;2022-07-29T14:58:18;30.70;55.90
18882;DHT22;9573;50.948;11.600;2022-07-29T15:00:47;30.80;55.60
18882;DHT22;9573;50.948;11.600;2022-07-29T15:03:15;30.90;55.20
18882;DHT22;9573;50.948;11.600;2022-07-29T15:05:42;30.80;55.20
18882;DHT22;9573;50.948;11.600;2022-07-29T15:08:11;30.70;55.00
18882;DHT22;9573;50.948;11.600;2022-07-29T15:10:38;30.80;54.80
18882;DHT22;9573;50.948;11.600;2022-07-29T15:13:05;30.90;54.70
18882;DHT22;9573;50.948;11.600;2022-07-29T15:15:33;30.90;54.60
18882;DHT22;9573;50.948;11.600;2022-07-29T15:18:00;30.80;54.60
18882;DHT22;9573;50.948;11.600;2022-07-29T15:20:27;30.60;55.00
18882;DHT22;9573;50.948;11.600;2022-07-29T15:22:54;30.50;55.10
18882;DHT22;9573;50.948;11.600;2022-07-29T15:25:24;30.40;55.10
18882;DHT22;9573;50.948;11.600;2022-07-29T15:27:52;30.40;55.30
18882;DHT22;9573;50.948;11.600;2022-07-29T15:30:19;30.30;55.70
18882;DHT22;9573;50.948;11.600;2022-07-29T15:32:46;30.30;55.80
18882;DHT22;9573;50.948;11.600;2022-07-29T15:35:13;30.30;55.70
18882;DHT22;9573;50.948;11.600;2022-07-29T15:37:40;30.10;54.80
18882;DHT22;9573;50.948;11.600;2022-07-29T15:40:08;29.90;55.20
18882;DHT22;9573;50.948;11.600;2022-07-29T15:42:38;29.90;55.40
18882;DHT22;9573;50.948;11.600;2022-07-29T15:45:06;29.80;55.40
18882;DHT22;9573;50.948;11.600;2022-07-29T15:47:34;29.80;55.40
18882;DHT22;9573;50.948;11.600;2022-07-29T15:50:02;29.80;55.50
18882;DHT22;9573;50.948;11.600;2022-07-29T15:52:31;29.70;55.60
18882;DHT22;9573;50.948;11.600;2022-07-29T15:55:01;29.60;55.30
18882;DHT22;9573;50.948;11.600;2022-07-29T15:57:28;29.40;56.50